| Date | Time | Temp. (oF) | Dew Point (oF) | Rel. Hum. (%) | Press. (in.) | Wind Dir. | Wind Speed (mph) | Hourly Rainfall (in.) |
|
|---|---|---|---|---|---|---|---|---|---|
| 1 | 06/09 | 00:00 | 80 | 70 | 72 | 29.87 | SW | 2 | 0.00 |
| 2 | 06/08 | 23:00 | 82 | 69 | 66 | 29.88 | WSW | 1 | 0.00 |
| 3 | 06/08 | 22:00 | 85 | 69 | 61 | 29.88 | WSW | 2 | 0.00 |
| 4 | 06/08 | 21:00 | 87 | 70 | 58 | 29.86 | SW | 3 | 0.00 |
| 5 | 06/08 | 20:00 | 91 | 70 | 52 | 29.83 | WSW | 3 | 0.00 |
| 6 | 06/08 | 19:00 | 94 | 71 | 49 | 29.80 | SW | 7 | 0.00 |
| 7 | 06/08 | 18:00 | 94 | 71 | 49 | 29.80 | SW | 6 | 0.00 |
| 8 | 06/08 | 17:00 | 94 | 70 | 47 | 29.80 | SW | 10 | 0.00 |
| 9 | 06/08 | 16:00 | 93 | 72 | 52 | 29.84 | NNW | 11 | 0.00 |
| 10 | 06/08 | 15:00 | 93 | 72 | 52 | 29.87 | W | 5 | 0.00 |
| 11 | 06/08 | 14:00 | 93 | 73 | 53 | 29.88 | W | 6 | 0.00 |
| 12 | 06/08 | 13:00 | 92 | 72 | 53 | 29.90 | WSW | 9 | 0.00 |
| 13 | 06/08 | 12:00 | 92 | 71 | 52 | 29.92 | WNW | 7 | 0.00 |
| 14 | 06/08 | 11:00 | 90 | 72 | 57 | 29.94 | S | 4 | 0.00 |
| 15 | 06/08 | 10:00 | 87 | 72 | 62 | 29.96 | NW | 5 | 0.00 |
| 16 | 06/08 | 09:00 | 84 | 73 | 71 | 29.98 | SSW | 4 | 0.00 |
| 17 | 06/08 | 08:00 | 79 | 72 | 81 | 29.99 | SSW | 3 | 0.00 |
| 18 | 06/08 | 07:00 | 75 | 71 | 89 | 29.98 | W | 0 | 0.00 |
| 19 | 06/08 | 06:00 | 72 | 69 | 91 | 29.98 | SW | 1 | 0.00 |
| 20 | 06/08 | 05:00 | 73 | 69 | 90 | 29.98 | WSW | 0 | 0.00 |
| 21 | 06/08 | 04:00 | 75 | 68 | 81 | 29.96 | WSW | 2 | 0.00 |
| 22 | 06/08 | 03:00 | 75 | 69 | 82 | 29.97 | SSW | 1 | 0.00 |
| 23 | 06/08 | 02:00 | 77 | 69 | 77 | 29.96 | SW | 0 | 0.00 |
| 24 | 06/08 | 01:00 | 79 | 69 | 74 | 29.95 | S | 2 | 0.00 |